createdAt,value
2018-07-26T00:00:24.430Z,10.68
2018-07-26T00:02:52.748Z,10.12
2018-07-26T00:05:21.077Z,10.66
2018-07-26T00:07:49.365Z,10.74
2018-07-26T00:10:17.652Z,11.00
2018-07-26T00:12:46.029Z,11.40
2018-07-26T00:15:15.276Z,10.76
2018-07-26T00:17:44.924Z,10.82
2018-07-26T00:20:14.897Z,11.20
2018-07-26T00:22:44.475Z,11.36
2018-07-26T00:25:12.941Z,12.00
2018-07-26T00:27:41.267Z,10.84
2018-07-26T00:30:09.579Z,11.48
2018-07-26T00:32:37.894Z,10.86
2018-07-26T00:35:06.172Z,9.92
2018-07-26T00:37:34.496Z,11.48
2018-07-26T00:40:02.801Z,12.18
2018-07-26T00:42:31.112Z,11.56
2018-07-26T00:44:59.637Z,11.98
2018-07-26T00:47:28.846Z,12.84
2018-07-26T00:49:57.210Z,12.18
2018-07-26T00:52:25.511Z,12.10
2018-07-26T00:54:53.004Z,13.16
2018-07-26T00:57:21.277Z,12.06
2018-07-26T00:59:49.591Z,12.68
2018-07-26T01:02:17.867Z,11.74
2018-07-26T01:04:46.201Z,12.98
2018-07-26T01:07:14.479Z,12.70
2018-07-26T01:09:42.983Z,13.38
2018-07-26T01:12:11.248Z,13.20
2018-07-26T01:14:39.549Z,12.74
2018-07-26T01:17:07.843Z,13.66
2018-07-26T01:19:36.127Z,13.76
2018-07-26T01:22:04.448Z,13.28
2018-07-26T01:24:32.724Z,13.80
2018-07-26T01:27:04.275Z,12.46
2018-07-26T01:29:31.791Z,14.22
2018-07-26T01:32:00.148Z,13.78
2018-07-26T01:34:29.816Z,13.44
2018-07-26T01:36:59.117Z,13.68
2018-07-26T01:39:28.048Z,14.80
2018-07-26T01:41:56.363Z,15.18
2018-07-26T01:44:24.645Z,13.80
2018-07-26T01:46:52.937Z,14.06
2018-07-26T01:49:21.212Z,14.26
2018-07-26T01:51:49.576Z,12.92
2018-07-26T01:54:17.841Z,13.86
2018-07-26T01:56:46.159Z,13.34
2018-07-26T01:59:14.440Z,13.38
2018-07-26T02:01:42.785Z,14.00
2018-07-26T02:07:04.233Z,11.96
2018-07-26T02:09:32.517Z,13.40
2018-07-26T02:12:00.793Z,12.90
2018-07-26T02:14:30.992Z,13.40
2018-07-26T02:25:58.938Z,14.40
2018-07-26T02:28:27.887Z,13.60
2018-07-26T02:30:56.238Z,13.64
2018-07-26T02:33:24.452Z,13.80
2018-07-26T02:35:52.778Z,14.48
2018-07-26T02:38:21.038Z,15.24
2018-07-26T02:40:49.354Z,14.20
2018-07-26T02:43:17.663Z,13.34
2018-07-26T02:45:45.961Z,14.14
2018-07-26T02:48:15.243Z,13.82
2018-07-26T02:50:43.569Z,14.56
2018-07-26T02:53:11.859Z,14.08
2018-07-26T02:55:40.213Z,13.02
2018-07-26T02:58:08.505Z,14.56
2018-07-26T03:00:36.782Z,12.48
2018-07-26T03:03:05.109Z,14.18
2018-07-26T03:05:33.378Z,13.68
2018-07-26T03:08:01.653Z,14.16
2018-07-26T03:10:29.995Z,12.76
2018-07-26T03:12:58.269Z,13.76
2018-07-26T03:15:26.576Z,14.22
2018-07-26T03:17:54.850Z,13.76
2018-07-26T03:20:23.140Z,14.84
2018-07-26T03:22:51.414Z,13.20
2018-07-26T03:25:19.702Z,13.84
2018-07-26T03:27:47.214Z,14.52
2018-07-26T03:30:15.848Z,15.16
2018-07-26T03:32:44.820Z,14.70
2018-07-26T03:35:13.080Z,14.10
2018-07-26T03:37:41.405Z,15.46
2018-07-26T03:40:09.669Z,14.18
2018-07-26T03:42:37.972Z,16.06
2018-07-26T03:45:06.278Z,14.26
2018-07-26T03:47:34.553Z,15.94
2018-07-26T03:50:02.856Z,13.82
2018-07-26T03:52:31.144Z,15.10
2018-07-26T03:54:59.446Z,15.80
2018-07-26T03:57:27.763Z,15.26
2018-07-26T04:05:42.112Z,15.80
2018-07-26T04:08:10.394Z,16.46
2018-07-26T04:10:38.701Z,17.18
2018-07-26T04:13:07.010Z,15.20
2018-07-26T04:15:35.325Z,15.02
2018-07-26T04:18:03.638Z,16.88
2018-07-26T04:20:31.944Z,16.38
2018-07-26T04:23:00.251Z,15.92
2018-07-26T04:25:31.984Z,16.94
2018-07-26T04:28:00.304Z,15.80
2018-07-26T04:30:29.667Z,15.54
2018-07-26T04:32:58.959Z,16.32
2018-07-26T04:35:27.753Z,17.44
2018-07-26T04:37:56.054Z,18.34
2018-07-26T04:40:24.332Z,18.16
2018-07-26T04:42:52.682Z,17.68
2018-07-26T04:45:20.941Z,18.04
2018-07-26T04:47:49.253Z,18.48
2018-07-26T04:50:17.535Z,18.52
2018-07-26T04:52:45.869Z,18.24
2018-07-26T04:55:15.454Z,19.12
2018-07-26T04:57:44.801Z,17.34
2018-07-26T05:00:13.090Z,17.20
2018-07-26T05:02:41.440Z,17.62
2018-07-26T05:05:09.060Z,18.74
2018-07-26T05:07:37.376Z,19.22
2018-07-26T05:10:05.664Z,18.84
2018-07-26T05:12:33.243Z,18.62
2018-07-26T05:15:01.518Z,17.22
2018-07-26T05:17:29.805Z,18.90
2018-07-26T05:19:59.132Z,17.44
2018-07-26T05:22:27.802Z,17.82
2018-07-26T05:24:56.144Z,17.72
2018-07-26T05:27:24.391Z,17.54
2018-07-26T05:29:53.270Z,18.82
2018-07-26T05:32:20.776Z,17.92
2018-07-26T05:34:49.081Z,17.40
2018-07-26T05:37:17.402Z,17.46
2018-07-26T05:39:45.682Z,17.58
2018-07-26T05:42:14.425Z,17.72
2018-07-26T05:44:41.948Z,18.72
2018-07-26T05:47:10.252Z,19.40
2018-07-26T05:49:37.765Z,16.80
2018-07-26T05:52:06.092Z,18.62
2018-07-26T05:54:34.371Z,18.10
2018-07-26T05:57:02.683Z,18.70
2018-07-26T05:59:30.986Z,18.92
2018-07-26T06:02:00.493Z,19.18
2018-07-26T06:04:29.589Z,20.28
2018-07-26T06:06:58.754Z,19.32
2018-07-26T06:09:27.062Z,20.38
2018-07-26T06:11:56.197Z,20.12
2018-07-26T06:14:24.486Z,18.72
2018-07-26T06:16:52.767Z,20.76
2018-07-26T06:19:21.026Z,18.32
2018-07-26T06:21:49.329Z,19.76
2018-07-26T06:24:17.607Z,19.18
2018-07-26T06:26:45.882Z,19.64
2018-07-26T06:29:15.453Z,19.22
2018-07-26T06:31:44.821Z,20.24
2018-07-26T06:34:14.702Z,20.42
2018-07-26T06:36:43.010Z,20.20
2018-07-26T06:39:11.345Z,21.24
2018-07-26T06:41:39.646Z,20.04
2018-07-26T06:44:07.938Z,20.88
2018-07-26T06:46:36.245Z,23.02
2018-07-26T06:49:08.125Z,21.12
2018-07-26T06:51:36.428Z,18.12
2018-07-26T06:54:04.758Z,19.32
2018-07-26T06:56:33.028Z,20.76
2018-07-26T06:59:01.309Z,19.92
2018-07-26T07:01:29.601Z,20.00
2018-07-26T07:03:58.716Z,19.90
2018-07-26T07:06:27.032Z,20.44
2018-07-26T07:08:55.286Z,20.06
2018-07-26T07:11:23.546Z,19.32
2018-07-26T07:13:51.844Z,17.42
2018-07-26T07:16:20.121Z,17.52
2018-07-26T07:18:48.432Z,14.38
2018-07-26T07:21:16.705Z,17.50
2018-07-26T07:23:46.024Z,18.10
2018-07-26T07:26:15.413Z,17.82
2018-07-26T07:28:44.636Z,18.96
2018-07-26T07:31:12.975Z,17.50
2018-07-26T07:33:41.312Z,16.94
2018-07-26T07:36:09.637Z,16.10
2018-07-26T07:38:37.909Z,18.44
2018-07-26T07:41:06.219Z,17.48
2018-07-26T07:43:34.499Z,16.88
2018-07-26T07:46:02.818Z,17.78
2018-07-26T07:48:30.378Z,15.92
2018-07-26T07:50:59.816Z,16.34
2018-07-26T07:53:29.205Z,15.30
2018-07-26T07:55:56.712Z,12.58
2018-07-26T07:58:26.082Z,12.48
2018-07-26T08:00:54.377Z,14.96
2018-07-26T08:03:21.929Z,14.58
2018-07-26T08:05:49.472Z,14.70
2018-07-26T08:08:17.100Z,14.70
2018-07-26T08:10:45.977Z,13.34
2018-07-26T08:13:15.530Z,16.30
2018-07-26T08:15:44.937Z,12.92
2018-07-26T08:18:14.924Z,15.20
2018-07-26T08:20:44.464Z,14.36
2018-07-26T08:23:12.748Z,12.72
2018-07-26T08:25:41.055Z,11.68
2018-07-26T08:28:09.325Z,11.42
2018-07-26T08:30:37.613Z,11.26
2018-07-26T08:33:05.923Z,11.04
2018-07-26T08:35:34.237Z,10.80
2018-07-26T08:38:01.794Z,10.80
2018-07-26T08:40:30.090Z,10.14
2018-07-26T08:42:58.385Z,10.62
2018-07-26T08:45:26.691Z,9.76
2018-07-26T08:47:54.969Z,8.70
2018-07-26T08:50:23.251Z,9.08
2018-07-26T08:52:51.552Z,8.88
2018-07-26T08:55:19.070Z,9.14
2018-07-26T08:57:47.399Z,8.96
2018-07-26T09:00:15.676Z,9.25
2018-07-26T09:02:45.021Z,8.12
2018-07-26T09:05:14.232Z,9.22
2018-07-26T09:07:42.506Z,8.32
2018-07-26T09:10:10.802Z,7.73
2018-07-26T09:12:38.308Z,7.14
2018-07-26T09:15:06.642Z,7.76
2018-07-26T09:17:34.926Z,7.18
2018-07-26T09:20:03.244Z,6.40
2018-07-26T09:22:31.534Z,7.60
2018-07-26T09:24:59.867Z,7.34
2018-07-26T09:27:27.925Z,7.44
2018-07-26T09:29:56.214Z,6.12
2018-07-26T09:32:24.525Z,7.24
2018-07-26T09:34:52.800Z,7.74
2018-07-26T09:37:21.113Z,5.96
2018-07-26T09:39:49.425Z,6.14
2018-07-26T09:42:17.733Z,6.10
2018-07-26T09:44:46.021Z,6.18
2018-07-26T09:47:15.320Z,6.20
2018-07-26T09:49:43.584Z,5.78
2018-07-26T09:52:11.844Z,5.68
2018-07-26T09:54:40.119Z,6.94
2018-07-26T09:57:08.409Z,5.54
2018-07-26T09:59:36.691Z,6.70
2018-07-26T10:02:04.976Z,5.88
2018-07-26T10:04:33.242Z,6.12
2018-07-26T10:07:02.411Z,5.72
2018-07-26T10:09:30.708Z,5.90
2018-07-26T10:11:59.846Z,6.06
2018-07-26T10:14:29.241Z,6.38
2018-07-26T10:16:57.918Z,6.70
2018-07-26T10:19:26.231Z,6.38
2018-07-26T10:21:54.604Z,6.46
2018-07-26T10:24:22.288Z,5.90
2018-07-26T10:26:50.569Z,6.40
2018-07-26T10:29:18.844Z,6.66
2018-07-26T10:31:47.136Z,6.68
2018-07-26T10:34:15.560Z,5.82
2018-07-26T10:36:44.311Z,5.74
2018-07-26T10:39:12.570Z,5.62
2018-07-26T10:41:40.870Z,5.68
2018-07-26T10:44:09.149Z,5.76
2018-07-26T10:46:37.437Z,6.14
2018-07-26T10:49:05.714Z,5.50
2018-07-26T10:51:34.022Z,6.12
2018-07-26T10:54:03.302Z,6.22
2018-07-26T10:56:31.598Z,5.66
2018-07-26T10:58:59.104Z,6.48
2018-07-26T11:01:27.897Z,4.90
2018-07-26T11:03:57.065Z,5.48
2018-07-26T11:06:25.430Z,4.84
2018-07-26T11:08:52.917Z,5.18
2018-07-26T11:11:21.246Z,5.58
2018-07-26T11:13:49.512Z,4.90
2018-07-26T11:16:17.796Z,5.60
2018-07-26T11:18:46.999Z,6.40
2018-07-26T11:21:15.985Z,5.58
2018-07-26T11:23:45.102Z,5.68
2018-07-26T11:26:12.634Z,5.12
2018-07-26T11:28:40.907Z,5.34
2018-07-26T11:31:09.216Z,5.92
2018-07-26T11:33:37.496Z,5.50
2018-07-26T11:36:05.794Z,5.80
2018-07-26T11:38:33.331Z,5.66
2018-07-26T11:41:01.608Z,5.42
2018-07-26T11:43:29.898Z,5.32
2018-07-26T11:45:59.081Z,5.92
2018-07-26T11:48:28.477Z,5.62
2018-07-26T11:50:56.742Z,5.78
2018-07-26T11:53:24.299Z,5.02
2018-07-26T11:55:52.598Z,4.98
2018-07-26T11:58:20.885Z,5.44
2018-07-26T12:00:49.153Z,4.94
2018-07-26T12:03:18.156Z,4.62
2018-07-26T12:05:45.666Z,5.82
2018-07-26T12:08:15.418Z,5.40
2018-07-26T12:10:44.200Z,5.38
2018-07-26T12:13:11.748Z,4.96
2018-07-26T12:15:40.017Z,4.40
2018-07-26T12:18:08.338Z,5.46
2018-07-26T12:20:36.613Z,4.42
2018-07-26T12:23:05.009Z,5.08
2018-07-26T12:25:33.228Z,5.54
2018-07-26T12:28:01.541Z,6.82
2018-07-26T12:30:29.817Z,5.60
2018-07-26T12:32:58.941Z,5.40
2018-07-26T12:35:27.961Z,5.44
2018-07-26T12:37:56.246Z,5.64
2018-07-26T12:40:24.542Z,5.46
2018-07-26T12:42:53.328Z,5.58
2018-07-26T12:45:20.869Z,6.26
2018-07-26T12:47:49.145Z,5.30
2018-07-26T12:50:17.448Z,5.32
2018-07-26T12:52:45.718Z,6.00
2018-07-26T12:55:15.213Z,5.82
2018-07-26T12:57:43.482Z,5.30
2018-07-26T13:00:11.760Z,6.28
2018-07-26T13:02:40.062Z,5.52
2018-07-26T13:05:08.342Z,6.82
2018-07-26T13:07:36.648Z,6.80
2018-07-26T13:10:04.947Z,6.22
2018-07-26T13:12:33.245Z,6.04
2018-07-26T13:15:01.511Z,5.94
2018-07-26T13:17:29.805Z,6.00
2018-07-26T13:19:59.248Z,5.78
2018-07-26T13:22:27.947Z,6.28
2018-07-26T13:24:56.217Z,5.62
2018-07-26T13:27:23.777Z,5.32
2018-07-26T13:29:52.053Z,5.54
2018-07-26T13:32:20.360Z,5.10
2018-07-26T13:34:47.858Z,5.30
2018-07-26T13:37:16.153Z,5.32
2018-07-26T13:39:44.425Z,4.82
2018-07-26T13:42:12.726Z,4.86
2018-07-26T13:44:41.021Z,5.68
2018-07-26T13:47:09.293Z,5.06
2018-07-26T13:49:37.593Z,5.12
2018-07-26T13:52:05.865Z,5.20
2018-07-26T13:54:34.253Z,4.94
2018-07-26T13:57:02.540Z,5.30
2018-07-26T13:59:30.836Z,4.70
2018-07-26T14:02:00.070Z,5.32
2018-07-26T14:04:29.357Z,4.72
2018-07-26T14:06:58.059Z,5.04
2018-07-26T14:09:26.344Z,5.46
2018-07-26T14:11:54.665Z,5.00
2018-07-26T14:14:22.930Z,4.62
2018-07-26T14:16:51.237Z,5.18
2018-07-26T14:19:19.534Z,6.08
2018-07-26T14:21:47.817Z,5.52
2018-07-26T14:24:16.131Z,5.40
2018-07-26T14:26:44.393Z,5.08
2018-07-26T14:29:11.896Z,7.80
2018-07-26T14:31:40.202Z,5.68
2018-07-26T14:34:07.706Z,5.50
2018-07-26T14:36:36.016Z,5.34
2018-07-26T14:39:03.525Z,5.14
2018-07-26T14:41:31.823Z,6.16
2018-07-26T14:44:00.089Z,5.10
2018-07-26T14:46:29.280Z,5.06
2018-07-26T14:48:58.033Z,5.00
2018-07-26T14:51:29.538Z,4.88
2018-07-26T14:53:58.897Z,5.88
2018-07-26T14:56:27.188Z,5.28
2018-07-26T14:58:55.482Z,4.50
2018-07-26T15:01:23.746Z,4.60
2018-07-26T15:03:55.381Z,4.90
2018-07-26T15:06:23.646Z,4.48
2018-07-26T15:08:51.950Z,5.16
2018-07-26T15:11:20.209Z,4.64
2018-07-26T15:13:48.520Z,4.64
2018-07-26T15:16:16.826Z,4.20
2018-07-26T15:18:46.245Z,4.90
2018-07-26T15:23:49.021Z,5.10
2018-07-26T15:26:17.349Z,4.34
2018-07-26T15:28:45.592Z,4.40
2018-07-26T15:31:16.889Z,4.48
2018-07-26T15:33:42.653Z,4.78
2018-07-26T15:36:10.952Z,4.12
2018-07-26T15:38:39.245Z,4.26
2018-07-26T15:41:07.509Z,4.76
2018-07-26T15:43:36.676Z,4.82
2018-07-26T15:46:04.958Z,5.10
2018-07-26T15:48:33.215Z,4.60
2018-07-26T15:51:01.528Z,4.30
2018-07-26T15:53:29.800Z,4.54
2018-07-26T15:55:59.579Z,4.16
2018-07-26T15:58:29.005Z,4.80
2018-07-26T16:00:57.376Z,4.42
2018-07-26T16:03:26.514Z,4.52
2018-07-26T16:05:54.887Z,4.42
2018-07-26T16:08:23.145Z,4.32
2018-07-26T16:10:51.412Z,3.70
2018-07-26T16:13:19.698Z,3.98
2018-07-26T16:15:47.973Z,3.38
2018-07-26T16:18:16.273Z,4.26
2018-07-26T16:20:44.961Z,3.90
2018-07-26T16:23:14.003Z,3.98
2018-07-26T16:25:42.280Z,3.68
2018-07-26T16:28:10.596Z,3.36
2018-07-26T16:30:38.900Z,4.30
2018-07-26T16:33:07.166Z,3.98
2018-07-26T16:35:35.458Z,4.44
2018-07-26T16:38:03.724Z,4.10
2018-07-26T16:40:32.036Z,3.90
2018-07-26T16:43:00.354Z,4.42
2018-07-26T16:45:28.746Z,6.78
2018-07-26T16:47:56.967Z,4.60
2018-07-26T16:50:25.272Z,4.76
2018-07-26T16:52:53.566Z,4.12
2018-07-26T16:55:21.850Z,4.78
2018-07-26T16:57:50.125Z,5.00
2018-07-26T17:00:18.412Z,4.10
2018-07-26T17:02:46.691Z,4.24
2018-07-26T17:05:15.605Z,5.00
2018-07-26T17:07:44.414Z,5.18
2018-07-26T17:10:12.707Z,5.46
2018-07-26T17:12:40.969Z,6.06
2018-07-26T17:15:09.264Z,5.00
2018-07-26T17:17:37.547Z,3.90
2018-07-26T17:20:05.863Z,5.18
2018-07-26T17:22:34.133Z,4.54
2018-07-26T17:25:02.430Z,4.78
2018-07-26T17:27:30.728Z,5.04
2018-07-26T17:29:59.524Z,5.76
2018-07-26T17:32:28.498Z,5.18
2018-07-26T17:34:56.805Z,4.76
2018-07-26T17:37:25.140Z,4.28
2018-07-26T17:39:54.224Z,4.50
2018-07-26T17:42:22.541Z,5.04
2018-07-26T17:44:51.913Z,4.78
2018-07-26T17:47:20.189Z,5.20
2018-07-26T17:49:48.499Z,5.06
2018-07-26T17:52:16.771Z,5.38
2018-07-26T17:54:45.690Z,5.02
2018-07-26T17:57:14.972Z,4.80
2018-07-26T17:59:44.565Z,5.08
2018-07-26T18:02:12.869Z,4.58
2018-07-26T18:04:41.157Z,4.46
2018-07-26T18:07:09.461Z,5.40
2018-07-26T18:09:37.750Z,5.52
2018-07-26T18:12:06.084Z,4.50
2018-07-26T18:14:33.615Z,5.40
2018-07-26T18:17:01.925Z,5.32
2018-07-26T18:19:30.225Z,5.16
2018-07-26T18:21:58.544Z,4.90
2018-07-26T18:24:26.865Z,4.42
2018-07-26T18:26:55.188Z,5.38
2018-07-26T18:29:22.877Z,4.94
2018-07-26T18:31:51.204Z,4.50
2018-07-26T18:34:19.521Z,4.38
2018-07-26T18:36:47.864Z,5.28
2018-07-26T18:39:16.141Z,4.86
2018-07-26T18:41:44.453Z,4.86
2018-07-26T18:44:12.771Z,4.98
2018-07-26T18:46:41.138Z,4.88
2018-07-26T18:49:09.487Z,4.24
2018-07-26T18:51:37.761Z,4.86
2018-07-26T18:54:06.034Z,3.98
2018-07-26T18:56:33.581Z,4.28
2018-07-26T18:59:01.896Z,5.38
2018-07-26T19:01:30.208Z,4.86
2018-07-26T19:03:58.554Z,4.40
2018-07-26T19:06:26.879Z,4.84
2018-07-26T19:08:55.144Z,5.02
2018-07-26T19:11:23.483Z,5.00
2018-07-26T19:13:52.702Z,4.24
2018-07-26T19:16:21.016Z,4.70
2018-07-26T19:18:49.299Z,4.76
2018-07-26T19:21:17.617Z,4.40
2018-07-26T19:23:45.928Z,4.88
2018-07-26T19:26:13.475Z,5.28
2018-07-26T19:28:41.829Z,5.28
2018-07-26T19:31:10.263Z,5.08
2018-07-26T19:33:38.549Z,4.14
2018-07-26T19:36:06.105Z,4.70
2018-07-26T19:38:34.365Z,4.66
2018-07-26T19:41:02.775Z,5.02
2018-07-26T19:43:31.094Z,4.58
2018-07-26T19:46:00.160Z,5.32
2018-07-26T19:48:29.636Z,4.70
2018-07-26T19:50:58.812Z,4.44
2018-07-26T19:53:27.121Z,5.58
2018-07-26T19:55:55.409Z,4.96
2018-07-26T19:58:23.727Z,5.02
2018-07-26T20:00:52.044Z,4.18
2018-07-26T20:03:19.621Z,5.06
2018-07-26T20:05:47.897Z,5.34
2018-07-26T20:08:18.444Z,4.76
2018-07-26T20:10:46.726Z,5.22
2018-07-26T20:13:16.214Z,5.28
2018-07-26T20:15:44.728Z,4.98
2018-07-26T20:18:13.054Z,5.14
2018-07-26T20:20:42.307Z,5.12
2018-07-26T20:23:09.879Z,5.02
2018-07-26T20:25:38.194Z,5.60
2018-07-26T20:28:05.785Z,6.24
2018-07-26T20:30:34.020Z,5.10
2018-07-26T20:33:02.492Z,6.60
2018-07-26T20:35:30.811Z,5.76
2018-07-26T20:38:00.195Z,6.30
2018-07-26T20:40:29.542Z,6.06
2018-07-26T20:42:59.038Z,6.04
2018-07-26T20:45:27.308Z,7.26
2018-07-26T20:47:55.669Z,6.12
2018-07-26T20:50:23.945Z,6.88
2018-07-26T20:52:52.245Z,6.78
2018-07-26T20:55:20.527Z,6.62
2018-07-26T20:57:48.873Z,6.12
2018-07-26T21:00:17.187Z,6.92
2018-07-26T21:02:46.243Z,7.98
2018-07-26T21:05:14.645Z,6.82
2018-07-26T21:07:42.917Z,5.00
2018-07-26T21:10:11.287Z,5.34
2018-07-26T21:12:39.573Z,5.40
2018-07-26T21:15:07.872Z,5.00
2018-07-26T21:17:36.147Z,5.66
2018-07-26T21:20:04.505Z,5.12
2018-07-26T21:22:32.773Z,4.92
2018-07-26T21:25:01.045Z,4.62
2018-07-26T21:27:30.446Z,4.84
2018-07-26T21:29:58.720Z,4.70
2018-07-26T21:32:26.273Z,4.94
2018-07-26T21:34:54.568Z,5.24
2018-07-26T21:37:22.829Z,5.20
2018-07-26T21:39:50.361Z,5.24
2018-07-26T21:42:18.670Z,5.54
2018-07-26T21:44:46.943Z,5.50
2018-07-26T21:47:16.007Z,5.08
2018-07-26T21:49:45.274Z,5.96
2018-07-26T21:52:13.557Z,5.12
2018-07-26T21:54:41.057Z,5.42
2018-07-26T21:57:09.414Z,5.72
2018-07-26T21:59:37.734Z,5.32
2018-07-26T22:02:06.021Z,5.66
2018-07-26T22:04:34.334Z,4.60
2018-07-26T22:07:01.865Z,5.34
2018-07-26T22:09:30.125Z,5.64
2018-07-26T22:11:59.474Z,6.50
2018-07-26T22:14:28.370Z,4.76
2018-07-26T22:16:56.661Z,5.50
2018-07-26T22:19:24.949Z,5.22
2018-07-26T22:21:53.313Z,5.54
2018-07-26T22:24:21.637Z,5.22
2018-07-26T22:26:49.936Z,4.98
2018-07-26T22:29:18.242Z,6.16
2018-07-26T22:31:46.518Z,5.36
2018-07-26T22:34:16.070Z,5.74
2018-07-26T22:36:44.338Z,4.94
2018-07-26T22:39:12.624Z,5.62
2018-07-26T22:41:40.936Z,5.22
2018-07-26T22:44:09.206Z,5.38
2018-07-26T22:46:37.540Z,5.52
2018-07-26T22:49:05.836Z,4.98
2018-07-26T22:51:34.092Z,5.54
2018-07-26T22:54:02.371Z,5.84
2018-07-26T22:56:30.645Z,5.50
2018-07-26T22:58:59.881Z,5.70
2018-07-26T23:01:28.206Z,5.72
2018-07-26T23:03:56.557Z,6.28
2018-07-26T23:06:24.867Z,5.28
2018-07-26T23:08:53.185Z,5.64
2018-07-26T23:11:21.486Z,6.48
2018-07-26T23:13:49.782Z,5.46
2018-07-26T23:16:18.071Z,4.82
2018-07-26T23:18:45.577Z,5.06
2018-07-26T23:21:14.353Z,5.30
2018-07-26T23:23:46.180Z,5.00
2018-07-26T23:26:14.494Z,5.52
2018-07-26T23:28:42.754Z,5.64
2018-07-26T23:31:11.064Z,5.78
2018-07-26T23:33:39.328Z,5.90
2018-07-26T23:36:07.737Z,5.86
2018-07-26T23:38:36.072Z,5.26
2018-07-26T23:41:04.397Z,6.70
2018-07-26T23:43:33.198Z,6.42
2018-07-26T23:46:01.523Z,6.00
2018-07-26T23:48:29.796Z,4.92
2018-07-26T23:50:58.989Z,6.12
2018-07-26T23:53:27.273Z,4.94
2018-07-26T23:55:55.573Z,5.10
2018-07-26T23:58:23.894Z,6.14
